sensor_id;sensor_type;location;lat;lon;timestamp;P1;durP1;ratioP1;P2;durP2;ratioP2
13941;SDS011;7043;51.630;7.254;2023-04-03T00:01:32;6.57;;;4.37;;
13941;SDS011;7043;51.630;7.254;2023-04-03T00:03:58;6.33;;;4.33;;
13941;SDS011;7043;51.630;7.254;2023-04-03T00:06:24;5.27;;;3.80;;
13941;SDS011;7043;51.630;7.254;2023-04-03T00:08:51;4.37;;;3.43;;
13941;SDS011;7043;51.630;7.254;2023-04-03T00:11:17;5.67;;;3.73;;
13941;SDS011;7043;51.630;7.254;2023-04-03T00:13:43;5.57;;;3.47;;
13941;SDS011;7043;51.630;7.254;2023-04-03T00:16:10;5.57;;;3.60;;
13941;SDS011;7043;51.630;7.254;2023-04-03T00:18:38;7.47;;;3.40;;
13941;SDS011;7043;51.630;7.254;2023-04-03T00:21:05;4.37;;;3.40;;
13941;SDS011;7043;51.630;7.254;2023-04-03T00:23:31;4.70;;;3.37;;
13941;SDS011;7043;51.630;7.254;2023-04-03T00:25:58;4.60;;;2.87;;
13941;SDS011;7043;51.630;7.254;2023-04-03T00:28:24;3.77;;;3.00;;
13941;SDS011;7043;51.630;7.254;2023-04-03T00:30:50;4.03;;;3.10;;
13941;SDS011;7043;51.630;7.254;2023-04-03T00:33:17;4.40;;;3.03;;
13941;SDS011;7043;51.630;7.254;2023-04-03T00:35:46;4.17;;;2.80;;
13941;SDS011;7043;51.630;7.254;2023-04-03T00:38:13;5.57;;;3.33;;
13941;SDS011;7043;51.630;7.254;2023-04-03T00:40:41;6.87;;;3.10;;
13941;SDS011;7043;51.630;7.254;2023-04-03T00:43:19;4.80;;;3.10;;
13941;SDS011;7043;51.630;7.254;2023-04-03T00:45:47;6.03;;;3.20;;
13941;SDS011;7043;51.630;7.254;2023-04-03T00:48:15;5.77;;;2.93;;
13941;SDS011;7043;51.630;7.254;2023-04-03T00:50:41;7.10;;;2.90;;
13941;SDS011;7043;51.630;7.254;2023-04-03T00:53:09;4.80;;;3.20;;
13941;SDS011;7043;51.630;7.254;2023-04-03T00:55:36;5.27;;;2.57;;
13941;SDS011;7043;51.630;7.254;2023-04-03T00:58:03;4.77;;;2.60;;
13941;SDS011;7043;51.630;7.254;2023-04-03T01:00:31;9.97;;;2.67;;
13941;SDS011;7043;51.630;7.254;2023-04-03T01:02:58;3.77;;;2.57;;
13941;SDS011;7043;51.630;7.254;2023-04-03T01:05:24;5.60;;;2.17;;
13941;SDS011;7043;51.630;7.254;2023-04-03T01:07:51;4.40;;;2.00;;
13941;SDS011;7043;51.630;7.254;2023-04-03T01:10:17;4.60;;;2.50;;
13941;SDS011;7043;51.630;7.254;2023-04-03T01:12:46;6.57;;;2.17;;
13941;SDS011;7043;51.630;7.254;2023-04-03T01:15:15;6.90;;;2.60;;
13941;SDS011;7043;51.630;7.254;2023-04-03T01:25:15;4.00;;;2.13;;
13941;SDS011;7043;51.630;7.254;2023-04-03T01:27:41;4.87;;;2.37;;
13941;SDS011;7043;51.630;7.254;2023-04-03T01:30:07;4.00;;;2.03;;
13941;SDS011;7043;51.630;7.254;2023-04-03T01:32:33;6.43;;;2.00;;
13941;SDS011;7043;51.630;7.254;2023-04-03T01:34:59;7.13;;;2.17;;
13941;SDS011;7043;51.630;7.254;2023-04-03T01:37:25;5.33;;;2.20;;
13941;SDS011;7043;51.630;7.254;2023-04-03T01:39:51;4.40;;;1.70;;
13941;SDS011;7043;51.630;7.254;2023-04-03T01:42:17;4.30;;;2.10;;
13941;SDS011;7043;51.630;7.254;2023-04-03T01:44:43;5.13;;;1.90;;
13941;SDS011;7043;51.630;7.254;2023-04-03T01:47:10;4.80;;;2.10;;
13941;SDS011;7043;51.630;7.254;2023-04-03T01:49:36;5.33;;;2.30;;
13941;SDS011;7043;51.630;7.254;2023-04-03T01:52:02;4.63;;;2.00;;
13941;SDS011;7043;51.630;7.254;2023-04-03T01:54:28;3.70;;;1.90;;
13941;SDS011;7043;51.630;7.254;2023-04-03T01:56:54;5.57;;;2.17;;
13941;SDS011;7043;51.630;7.254;2023-04-03T01:59:20;5.17;;;1.87;;
13941;SDS011;7043;51.630;7.254;2023-04-03T02:01:46;3.50;;;1.97;;
13941;SDS011;7043;51.630;7.254;2023-04-03T02:04:12;4.67;;;2.00;;
13941;SDS011;7043;51.630;7.254;2023-04-03T02:06:38;3.70;;;2.13;;
13941;SDS011;7043;51.630;7.254;2023-04-03T02:09:04;4.03;;;1.70;;
13941;SDS011;7043;51.630;7.254;2023-04-03T02:11:31;5.57;;;2.10;;
13941;SDS011;7043;51.630;7.254;2023-04-03T02:13:57;2.63;;;1.57;;
13941;SDS011;7043;51.630;7.254;2023-04-03T02:16:23;4.73;;;1.63;;
13941;SDS011;7043;51.630;7.254;2023-04-03T02:18:49;5.33;;;2.10;;
13941;SDS011;7043;51.630;7.254;2023-04-03T02:21:15;4.40;;;1.83;;
13941;SDS011;7043;51.630;7.254;2023-04-03T02:23:41;5.93;;;2.10;;
13941;SDS011;7043;51.630;7.254;2023-04-03T02:26:12;5.03;;;2.03;;
13941;SDS011;7043;51.630;7.254;2023-04-03T02:28:38;4.77;;;1.93;;
13941;SDS011;7043;51.630;7.254;2023-04-03T02:31:04;5.90;;;2.07;;
13941;SDS011;7043;51.630;7.254;2023-04-03T02:33:31;5.50;;;2.10;;
13941;SDS011;7043;51.630;7.254;2023-04-03T02:35:57;4.83;;;2.30;;
13941;SDS011;7043;51.630;7.254;2023-04-03T02:38:24;3.80;;;2.17;;
13941;SDS011;7043;51.630;7.254;2023-04-03T02:40:50;4.43;;;2.30;;
13941;SDS011;7043;51.630;7.254;2023-04-03T02:43:16;5.67;;;2.37;;
13941;SDS011;7043;51.630;7.254;2023-04-03T02:45:43;5.17;;;2.13;;
13941;SDS011;7043;51.630;7.254;2023-04-03T02:48:09;5.27;;;2.13;;
13941;SDS011;7043;51.630;7.254;2023-04-03T02:50:35;4.83;;;2.30;;
13941;SDS011;7043;51.630;7.254;2023-04-03T02:53:01;3.27;;;2.00;;
13941;SDS011;7043;51.630;7.254;2023-04-03T02:55:27;4.00;;;1.87;;
13941;SDS011;7043;51.630;7.254;2023-04-03T02:57:53;6.97;;;1.83;;
13941;SDS011;7043;51.630;7.254;2023-04-03T03:00:19;4.37;;;1.67;;
13941;SDS011;7043;51.630;7.254;2023-04-03T03:02:45;4.90;;;2.10;;
13941;SDS011;7043;51.630;7.254;2023-04-03T03:05:11;4.47;;;2.13;;
13941;SDS011;7043;51.630;7.254;2023-04-03T03:07:37;5.03;;;2.20;;
13941;SDS011;7043;51.630;7.254;2023-04-03T03:10:03;4.97;;;1.93;;
13941;SDS011;7043;51.630;7.254;2023-04-03T03:12:29;5.73;;;2.00;;
13941;SDS011;7043;51.630;7.254;2023-04-03T03:14:55;4.87;;;2.13;;
13941;SDS011;7043;51.630;7.254;2023-04-03T03:17:21;6.10;;;2.27;;
13941;SDS011;7043;51.630;7.254;2023-04-03T03:19:47;6.13;;;2.40;;
13941;SDS011;7043;51.630;7.254;2023-04-03T03:22:13;5.60;;;2.47;;
13941;SDS011;7043;51.630;7.254;2023-04-03T03:24:39;4.47;;;2.37;;
13941;SDS011;7043;51.630;7.254;2023-04-03T03:27:05;3.67;;;2.20;;
13941;SDS011;7043;51.630;7.254;2023-04-03T03:29:31;6.23;;;2.20;;
13941;SDS011;7043;51.630;7.254;2023-04-03T03:31:57;7.07;;;2.10;;
13941;SDS011;7043;51.630;7.254;2023-04-03T03:34:23;6.30;;;2.20;;
13941;SDS011;7043;51.630;7.254;2023-04-03T03:36:49;6.73;;;2.20;;
13941;SDS011;7043;51.630;7.254;2023-04-03T03:39:15;5.13;;;2.50;;
13941;SDS011;7043;51.630;7.254;2023-04-03T03:41:41;5.57;;;2.57;;
13941;SDS011;7043;51.630;7.254;2023-04-03T03:44:07;5.20;;;2.20;;
13941;SDS011;7043;51.630;7.254;2023-04-03T03:46:33;6.83;;;2.60;;
13941;SDS011;7043;51.630;7.254;2023-04-03T03:48:59;6.10;;;2.70;;
13941;SDS011;7043;51.630;7.254;2023-04-03T03:51:25;6.77;;;2.20;;
13941;SDS011;7043;51.630;7.254;2023-04-03T03:53:51;6.13;;;2.17;;
13941;SDS011;7043;51.630;7.254;2023-04-03T03:56:17;5.83;;;2.30;;
13941;SDS011;7043;51.630;7.254;2023-04-03T03:58:43;5.53;;;2.37;;
13941;SDS011;7043;51.630;7.254;2023-04-03T04:01:09;5.07;;;2.20;;
13941;SDS011;7043;51.630;7.254;2023-04-03T04:03:35;7.03;;;2.50;;
13941;SDS011;7043;51.630;7.254;2023-04-03T04:06:01;5.73;;;2.33;;
13941;SDS011;7043;51.630;7.254;2023-04-03T04:08:27;5.87;;;2.43;;
13941;SDS011;7043;51.630;7.254;2023-04-03T04:10:54;6.77;;;2.40;;
13941;SDS011;7043;51.630;7.254;2023-04-03T04:13:20;5.50;;;2.10;;
13941;SDS011;7043;51.630;7.254;2023-04-03T04:15:46;5.77;;;3.17;;
13941;SDS011;7043;51.630;7.254;2023-04-03T04:18:12;5.83;;;2.70;;
13941;SDS011;7043;51.630;7.254;2023-04-03T04:20:38;6.27;;;2.50;;
13941;SDS011;7043;51.630;7.254;2023-04-03T04:23:04;5.87;;;2.70;;
13941;SDS011;7043;51.630;7.254;2023-04-03T04:25:30;6.23;;;2.50;;
13941;SDS011;7043;51.630;7.254;2023-04-03T04:27:57;5.60;;;2.37;;
13941;SDS011;7043;51.630;7.254;2023-04-03T04:30:23;5.20;;;2.50;;
13941;SDS011;7043;51.630;7.254;2023-04-03T04:32:49;5.53;;;2.40;;
13941;SDS011;7043;51.630;7.254;2023-04-03T04:35:15;7.60;;;3.00;;
13941;SDS011;7043;51.630;7.254;2023-04-03T04:37:41;7.77;;;2.73;;
13941;SDS011;7043;51.630;7.254;2023-04-03T04:40:07;6.57;;;2.63;;
13941;SDS011;7043;51.630;7.254;2023-04-03T04:42:34;8.47;;;3.17;;
13941;SDS011;7043;51.630;7.254;2023-04-03T04:45:00;5.73;;;3.10;;
13941;SDS011;7043;51.630;7.254;2023-04-03T04:47:27;6.67;;;2.93;;
13941;SDS011;7043;51.630;7.254;2023-04-03T04:49:53;7.03;;;2.70;;
13941;SDS011;7043;51.630;7.254;2023-04-03T04:52:19;5.07;;;2.77;;
13941;SDS011;7043;51.630;7.254;2023-04-03T04:54:45;6.30;;;2.77;;
13941;SDS011;7043;51.630;7.254;2023-04-03T04:57:11;6.63;;;2.50;;
13941;SDS011;7043;51.630;7.254;2023-04-03T04:59:37;6.87;;;2.77;;
13941;SDS011;7043;51.630;7.254;2023-04-03T05:02:03;6.50;;;2.50;;
13941;SDS011;7043;51.630;7.254;2023-04-03T05:04:29;6.57;;;2.60;;
13941;SDS011;7043;51.630;7.254;2023-04-03T05:06:55;8.30;;;2.97;;
13941;SDS011;7043;51.630;7.254;2023-04-03T05:09:21;5.07;;;2.93;;
13941;SDS011;7043;51.630;7.254;2023-04-03T05:11:47;4.77;;;2.40;;
13941;SDS011;7043;51.630;7.254;2023-04-03T05:14:13;7.17;;;3.17;;
13941;SDS011;7043;51.630;7.254;2023-04-03T05:16:39;5.10;;;2.73;;
13941;SDS011;7043;51.630;7.254;2023-04-03T05:19:05;5.43;;;2.50;;
13941;SDS011;7043;51.630;7.254;2023-04-03T05:21:31;4.73;;;2.57;;
13941;SDS011;7043;51.630;7.254;2023-04-03T05:23:58;4.43;;;2.37;;
13941;SDS011;7043;51.630;7.254;2023-04-03T05:26:24;4.57;;;2.40;;
13941;SDS011;7043;51.630;7.254;2023-04-03T05:28:51;7.70;;;2.90;;
13941;SDS011;7043;51.630;7.254;2023-04-03T05:31:17;5.33;;;2.60;;
13941;SDS011;7043;51.630;7.254;2023-04-03T05:33:43;5.90;;;2.70;;
13941;SDS011;7043;51.630;7.254;2023-04-03T05:36:09;7.97;;;3.20;;
13941;SDS011;7043;51.630;7.254;2023-04-03T05:38:35;8.10;;;2.87;;
13941;SDS011;7043;51.630;7.254;2023-04-03T05:41:01;5.30;;;2.67;;
13941;SDS011;7043;51.630;7.254;2023-04-03T05:43:27;7.50;;;2.73;;
13941;SDS011;7043;51.630;7.254;2023-04-03T05:45:53;7.97;;;2.63;;
13941;SDS011;7043;51.630;7.254;2023-04-03T05:48:19;8.33;;;3.00;;
13941;SDS011;7043;51.630;7.254;2023-04-03T05:50:45;7.10;;;2.43;;
13941;SDS011;7043;51.630;7.254;2023-04-03T05:53:19;6.80;;;2.40;;
13941;SDS011;7043;51.630;7.254;2023-04-03T05:55:47;4.40;;;2.40;;
13941;SDS011;7043;51.630;7.254;2023-04-03T05:58:13;5.00;;;2.40;;
13941;SDS011;7043;51.630;7.254;2023-04-03T06:00:39;3.97;;;2.20;;
13941;SDS011;7043;51.630;7.254;2023-04-03T06:03:05;6.63;;;2.37;;
13941;SDS011;7043;51.630;7.254;2023-04-03T06:05:31;6.97;;;2.17;;
13941;SDS011;7043;51.630;7.254;2023-04-03T06:07:57;6.17;;;2.13;;
13941;SDS011;7043;51.630;7.254;2023-04-03T06:10:23;6.03;;;2.43;;
13941;SDS011;7043;51.630;7.254;2023-04-03T06:12:49;7.87;;;2.57;;
13941;SDS011;7043;51.630;7.254;2023-04-03T06:15:16;7.00;;;2.33;;
13941;SDS011;7043;51.630;7.254;2023-04-03T06:17:42;5.07;;;2.17;;
13941;SDS011;7043;51.630;7.254;2023-04-03T06:20:08;3.60;;;2.23;;
13941;SDS011;7043;51.630;7.254;2023-04-03T06:22:35;5.60;;;2.43;;
13941;SDS011;7043;51.630;7.254;2023-04-03T06:25:01;6.23;;;2.37;;
13941;SDS011;7043;51.630;7.254;2023-04-03T06:27:27;5.43;;;2.10;;
13941;SDS011;7043;51.630;7.254;2023-04-03T06:29:53;4.73;;;1.97;;
13941;SDS011;7043;51.630;7.254;2023-04-03T06:32:19;4.80;;;2.50;;
13941;SDS011;7043;51.630;7.254;2023-04-03T06:34:45;6.53;;;2.17;;
13941;SDS011;7043;51.630;7.254;2023-04-03T06:37:16;5.63;;;2.03;;
13941;SDS011;7043;51.630;7.254;2023-04-03T06:39:43;6.27;;;2.60;;
13941;SDS011;7043;51.630;7.254;2023-04-03T06:42:10;5.47;;;2.20;;
13941;SDS011;7043;51.630;7.254;2023-04-03T06:44:36;4.67;;;2.37;;
13941;SDS011;7043;51.630;7.254;2023-04-03T06:47:03;6.47;;;2.50;;
13941;SDS011;7043;51.630;7.254;2023-04-03T06:49:29;4.30;;;2.00;;
13941;SDS011;7043;51.630;7.254;2023-04-03T06:51:56;5.80;;;2.43;;
13941;SDS011;7043;51.630;7.254;2023-04-03T06:54:23;5.00;;;2.10;;
13941;SDS011;7043;51.630;7.254;2023-04-03T06:56:52;7.53;;;2.40;;
13941;SDS011;7043;51.630;7.254;2023-04-03T06:59:20;5.07;;;2.30;;
13941;SDS011;7043;51.630;7.254;2023-04-03T07:01:46;4.53;;;2.30;;
13941;SDS011;7043;51.630;7.254;2023-04-03T07:04:12;7.57;;;2.67;;
13941;SDS011;7043;51.630;7.254;2023-04-03T07:06:38;4.47;;;2.37;;
13941;SDS011;7043;51.630;7.254;2023-04-03T07:09:04;4.50;;;2.27;;
13941;SDS011;7043;51.630;7.254;2023-04-03T07:11:30;6.83;;;2.00;;
13941;SDS011;7043;51.630;7.254;2023-04-03T07:13:56;5.70;;;2.27;;
13941;SDS011;7043;51.630;7.254;2023-04-03T07:16:22;4.17;;;1.83;;
13941;SDS011;7043;51.630;7.254;2023-04-03T07:18:48;4.30;;;2.57;;
13941;SDS011;7043;51.630;7.254;2023-04-03T07:21:14;5.00;;;2.30;;
13941;SDS011;7043;51.630;7.254;2023-04-03T07:23:40;5.60;;;2.47;;
13941;SDS011;7043;51.630;7.254;2023-04-03T07:26:06;4.57;;;2.63;;
13941;SDS011;7043;51.630;7.254;2023-04-03T07:28:33;3.50;;;2.20;;
13941;SDS011;7043;51.630;7.254;2023-04-03T07:31:03;5.03;;;2.33;;
13941;SDS011;7043;51.630;7.254;2023-04-03T07:33:30;6.63;;;2.33;;
13941;SDS011;7043;51.630;7.254;2023-04-03T07:35:57;4.97;;;2.37;;
13941;SDS011;7043;51.630;7.254;2023-04-03T07:38:23;4.47;;;2.00;;
13941;SDS011;7043;51.630;7.254;2023-04-03T07:40:50;6.60;;;2.63;;
13941;SDS011;7043;51.630;7.254;2023-04-03T07:43:18;6.83;;;2.37;;
13941;SDS011;7043;51.630;7.254;2023-04-03T07:45:45;4.97;;;2.23;;
13941;SDS011;7043;51.630;7.254;2023-04-03T07:48:12;5.77;;;2.40;;
13941;SDS011;7043;51.630;7.254;2023-04-03T07:50:41;4.13;;;2.30;;
13941;SDS011;7043;51.630;7.254;2023-04-03T07:53:07;4.73;;;2.50;;
13941;SDS011;7043;51.630;7.254;2023-04-03T07:55:33;5.07;;;2.50;;
13941;SDS011;7043;51.630;7.254;2023-04-03T07:58:02;4.80;;;2.10;;
13941;SDS011;7043;51.630;7.254;2023-04-03T08:00:28;5.30;;;2.20;;
13941;SDS011;7043;51.630;7.254;2023-04-03T08:02:54;3.20;;;2.13;;
13941;SDS011;7043;51.630;7.254;2023-04-03T08:05:21;4.50;;;2.10;;
13941;SDS011;7043;51.630;7.254;2023-04-03T08:07:47;4.57;;;2.27;;
13941;SDS011;7043;51.630;7.254;2023-04-03T08:10:14;3.50;;;2.07;;
13941;SDS011;7043;51.630;7.254;2023-04-03T08:12:40;5.73;;;2.50;;
13941;SDS011;7043;51.630;7.254;2023-04-03T08:15:06;4.17;;;2.10;;
13941;SDS011;7043;51.630;7.254;2023-04-03T08:17:33;3.43;;;2.10;;
13941;SDS011;7043;51.630;7.254;2023-04-03T08:19:59;3.67;;;1.90;;
13941;SDS011;7043;51.630;7.254;2023-04-03T08:22:25;5.07;;;2.33;;
13941;SDS011;7043;51.630;7.254;2023-04-03T08:24:52;4.63;;;2.10;;
13941;SDS011;7043;51.630;7.254;2023-04-03T08:27:18;2.93;;;1.90;;
13941;SDS011;7043;51.630;7.254;2023-04-03T08:29:44;3.60;;;2.17;;
13941;SDS011;7043;51.630;7.254;2023-04-03T08:32:10;4.63;;;1.83;;
13941;SDS011;7043;51.630;7.254;2023-04-03T08:34:36;6.67;;;2.30;;
13941;SDS011;7043;51.630;7.254;2023-04-03T08:37:04;6.27;;;2.23;;
13941;SDS011;7043;51.630;7.254;2023-04-03T08:39:31;3.97;;;2.00;;
13941;SDS011;7043;51.630;7.254;2023-04-03T08:41:57;4.43;;;2.00;;
13941;SDS011;7043;51.630;7.254;2023-04-03T08:44:25;5.67;;;2.20;;
13941;SDS011;7043;51.630;7.254;2023-04-03T08:49:33;4.07;;;2.00;;
13941;SDS011;7043;51.630;7.254;2023-04-03T08:52:04;5.17;;;2.03;;
13941;SDS011;7043;51.630;7.254;2023-04-03T08:54:33;5.63;;;1.30;;
13941;SDS011;7043;51.630;7.254;2023-04-03T08:56:59;3.07;;;1.50;;
13941;SDS011;7043;51.630;7.254;2023-04-03T08:59:28;3.07;;;1.47;;
13941;SDS011;7043;51.630;7.254;2023-04-03T09:01:56;2.63;;;1.20;;
13941;SDS011;7043;51.630;7.254;2023-04-03T09:04:23;1.80;;;1.20;;
13941;SDS011;7043;51.630;7.254;2023-04-03T09:06:55;3.93;;;1.50;;
13941;SDS011;7043;51.630;7.254;2023-04-03T09:09:39;2.90;;;1.43;;
13941;SDS011;7043;51.630;7.254;2023-04-03T09:15:23;2.93;;;1.37;;
13941;SDS011;7043;51.630;7.254;2023-04-03T09:18:02;3.40;;;1.43;;
13941;SDS011;7043;51.630;7.254;2023-04-03T09:26:07;2.37;;;1.40;;
13941;SDS011;7043;51.630;7.254;2023-04-03T09:28:37;1.50;;;1.03;;
13941;SDS011;7043;51.630;7.254;2023-04-03T09:31:09;3.50;;;1.37;;
13941;SDS011;7043;51.630;7.254;2023-04-03T09:33:36;2.70;;;1.30;;
13941;SDS011;7043;51.630;7.254;2023-04-03T09:36:03;2.40;;;1.03;;
13941;SDS011;7043;51.630;7.254;2023-04-03T09:38:29;3.07;;;1.20;;
13941;SDS011;7043;51.630;7.254;2023-04-03T09:43:29;4.40;;;1.10;;
13941;SDS011;7043;51.630;7.254;2023-04-03T09:45:56;1.93;;;1.10;;
13941;SDS011;7043;51.630;7.254;2023-04-03T09:48:23;2.27;;;1.20;;
13941;SDS011;7043;51.630;7.254;2023-04-03T09:58:41;1.93;;;1.33;;
13941;SDS011;7043;51.630;7.254;2023-04-03T10:01:20;1.87;;;1.20;;
13941;SDS011;7043;51.630;7.254;2023-04-03T10:03:46;2.67;;;1.20;;
13941;SDS011;7043;51.630;7.254;2023-04-03T10:06:29;4.53;;;1.40;;
13941;SDS011;7043;51.630;7.254;2023-04-03T10:09:00;3.17;;;1.03;;
13941;SDS011;7043;51.630;7.254;2023-04-03T10:11:29;3.00;;;1.20;;
13941;SDS011;7043;51.630;7.254;2023-04-03T10:13:56;1.93;;;0.70;;
13941;SDS011;7043;51.630;7.254;2023-04-03T10:16:47;2.50;;;0.90;;
13941;SDS011;7043;51.630;7.254;2023-04-03T10:21:57;3.00;;;1.40;;
13941;SDS011;7043;51.630;7.254;2023-04-03T10:24:35;2.50;;;1.10;;
13941;SDS011;7043;51.630;7.254;2023-04-03T10:27:10;2.00;;;1.10;;
13941;SDS011;7043;51.630;7.254;2023-04-03T10:29:42;1.50;;;1.17;;
13941;SDS011;7043;51.630;7.254;2023-04-03T10:34:39;1.80;;;1.10;;
13941;SDS011;7043;51.630;7.254;2023-04-03T10:37:14;2.43;;;1.10;;
13941;SDS011;7043;51.630;7.254;2023-04-03T10:39:53;3.13;;;1.20;;
13941;SDS011;7043;51.630;7.254;2023-04-03T10:42:39;2.83;;;1.03;;
13941;SDS011;7043;51.630;7.254;2023-04-03T10:47:54;1.83;;;1.00;;
13941;SDS011;7043;51.630;7.254;2023-04-03T10:58:28;3.57;;;1.20;;
13941;SDS011;7043;51.630;7.254;2023-04-03T11:00:56;1.87;;;1.00;;
13941;SDS011;7043;51.630;7.254;2023-04-03T11:05:52;2.57;;;1.07;;
13941;SDS011;7043;51.630;7.254;2023-04-03T11:11:12;3.33;;;1.33;;
13941;SDS011;7043;51.630;7.254;2023-04-03T11:13:40;2.73;;;1.30;;
13941;SDS011;7043;51.630;7.254;2023-04-03T11:16:08;1.67;;;1.10;;
13941;SDS011;7043;51.630;7.254;2023-04-03T11:18:39;2.47;;;1.20;;
13941;SDS011;7043;51.630;7.254;2023-04-03T11:21:12;3.17;;;1.20;;
13941;SDS011;7043;51.630;7.254;2023-04-03T11:23:40;1.70;;;0.90;;
13941;SDS011;7043;51.630;7.254;2023-04-03T11:26:10;3.17;;;1.00;;
13941;SDS011;7043;51.630;7.254;2023-04-03T11:28:37;3.53;;;1.13;;
13941;SDS011;7043;51.630;7.254;2023-04-03T11:31:15;2.20;;;1.20;;
13941;SDS011;7043;51.630;7.254;2023-04-03T11:38:41;2.90;;;1.10;;
13941;SDS011;7043;51.630;7.254;2023-04-03T11:41:08;3.63;;;1.40;;
13941;SDS011;7043;51.630;7.254;2023-04-03T11:43:39;2.20;;;1.03;;
13941;SDS011;7043;51.630;7.254;2023-04-03T11:46:06;2.83;;;1.00;;
13941;SDS011;7043;51.630;7.254;2023-04-03T11:51:02;2.40;;;1.10;;
13941;SDS011;7043;51.630;7.254;2023-04-03T11:53:48;2.63;;;1.10;;
13941;SDS011;7043;51.630;7.254;2023-04-03T12:01:52;1.73;;;1.10;;
13941;SDS011;7043;51.630;7.254;2023-04-03T12:04:17;2.73;;;1.03;;
13941;SDS011;7043;51.630;7.254;2023-04-03T12:11:59;2.63;;;1.20;;
13941;SDS011;7043;51.630;7.254;2023-04-03T12:14:27;1.90;;;1.07;;
13941;SDS011;7043;51.630;7.254;2023-04-03T12:16:54;2.63;;;1.43;;
13941;SDS011;7043;51.630;7.254;2023-04-03T12:19:38;2.47;;;1.00;;
13941;SDS011;7043;51.630;7.254;2023-04-03T12:22:14;2.27;;;1.10;;
13941;SDS011;7043;51.630;7.254;2023-04-03T12:24:51;2.57;;;1.10;;
13941;SDS011;7043;51.630;7.254;2023-04-03T12:29:54;2.73;;;1.40;;
13941;SDS011;7043;51.630;7.254;2023-04-03T12:40:09;2.97;;;1.30;;
13941;SDS011;7043;51.630;7.254;2023-04-03T12:45:25;2.03;;;1.10;;
13941;SDS011;7043;51.630;7.254;2023-04-03T12:47:52;2.67;;;1.13;;
13941;SDS011;7043;51.630;7.254;2023-04-03T12:50:27;2.53;;;1.20;;
13941;SDS011;7043;51.630;7.254;2023-04-03T12:53:11;3.90;;;1.23;;
13941;SDS011;7043;51.630;7.254;2023-04-03T12:55:38;1.93;;;1.13;;
13941;SDS011;7043;51.630;7.254;2023-04-03T12:58:21;2.07;;;1.10;;
13941;SDS011;7043;51.630;7.254;2023-04-03T13:00:58;2.77;;;1.33;;
13941;SDS011;7043;51.630;7.254;2023-04-03T13:03:25;2.13;;;1.10;;
13941;SDS011;7043;51.630;7.254;2023-04-03T13:05:59;2.40;;;1.10;;
13941;SDS011;7043;51.630;7.254;2023-04-03T13:08:26;1.83;;;1.00;;
13941;SDS011;7043;51.630;7.254;2023-04-03T13:11:01;2.50;;;1.30;;
13941;SDS011;7043;51.630;7.254;2023-04-03T13:13:28;3.47;;;1.00;;
13941;SDS011;7043;51.630;7.254;2023-04-03T13:15:55;3.17;;;1.03;;
13941;SDS011;7043;51.630;7.254;2023-04-03T13:18:22;2.00;;;1.17;;
13941;SDS011;7043;51.630;7.254;2023-04-03T13:20:48;3.17;;;1.30;;
13941;SDS011;7043;51.630;7.254;2023-04-03T13:23:14;4.33;;;1.30;;
13941;SDS011;7043;51.630;7.254;2023-04-03T13:25:43;2.63;;;1.30;;
13941;SDS011;7043;51.630;7.254;2023-04-03T13:28:11;2.77;;;1.20;;
13941;SDS011;7043;51.630;7.254;2023-04-03T13:30:38;3.07;;;1.10;;
13941;SDS011;7043;51.630;7.254;2023-04-03T13:33:06;2.53;;;0.90;;
13941;SDS011;7043;51.630;7.254;2023-04-03T13:35:43;2.87;;;1.20;;
13941;SDS011;7043;51.630;7.254;2023-04-03T13:43:18;3.53;;;1.33;;
13941;SDS011;7043;51.630;7.254;2023-04-03T13:48:48;3.27;;;1.37;;
13941;SDS011;7043;51.630;7.254;2023-04-03T13:51:28;4.73;;;2.10;;
13941;SDS011;7043;51.630;7.254;2023-04-03T13:53:56;3.37;;;1.73;;
13941;SDS011;7043;51.630;7.254;2023-04-03T13:56:33;3.67;;;1.20;;
13941;SDS011;7043;51.630;7.254;2023-04-03T14:02:09;3.10;;;1.10;;
13941;SDS011;7043;51.630;7.254;2023-04-03T14:04:24;3.47;;;1.17;;
13941;SDS011;7043;51.630;7.254;2023-04-03T14:06:50;2.50;;;1.27;;
13941;SDS011;7043;51.630;7.254;2023-04-03T14:09:17;2.47;;;1.27;;
13941;SDS011;7043;51.630;7.254;2023-04-03T14:11:44;2.70;;;1.27;;
13941;SDS011;7043;51.630;7.254;2023-04-03T14:14:15;2.23;;;1.10;;
13941;SDS011;7043;51.630;7.254;2023-04-03T14:16:47;2.60;;;1.47;;
13941;SDS011;7043;51.630;7.254;2023-04-03T14:19:24;4.63;;;1.10;;
13941;SDS011;7043;51.630;7.254;2023-04-03T14:21:51;1.80;;;1.30;;
13941;SDS011;7043;51.630;7.254;2023-04-03T14:24:18;1.90;;;1.07;;
13941;SDS011;7043;51.630;7.254;2023-04-03T14:26:47;2.07;;;1.30;;
13941;SDS011;7043;51.630;7.254;2023-04-03T14:29:13;2.20;;;1.43;;
13941;SDS011;7043;51.630;7.254;2023-04-03T14:31:42;2.80;;;1.40;;
13941;SDS011;7043;51.630;7.254;2023-04-03T14:34:09;2.80;;;1.33;;
13941;SDS011;7043;51.630;7.254;2023-04-03T14:36:36;2.43;;;1.30;;
13941;SDS011;7043;51.630;7.254;2023-04-03T14:39:03;4.73;;;1.50;;
13941;SDS011;7043;51.630;7.254;2023-04-03T14:41:29;3.07;;;1.40;;
13941;SDS011;7043;51.630;7.254;2023-04-03T14:43:56;2.73;;;1.40;;
13941;SDS011;7043;51.630;7.254;2023-04-03T14:48:51;12.40;;;2.40;;
13941;SDS011;7043;51.630;7.254;2023-04-03T14:51:17;3.67;;;1.33;;
13941;SDS011;7043;51.630;7.254;2023-04-03T14:53:43;2.47;;;1.27;;
13941;SDS011;7043;51.630;7.254;2023-04-03T14:56:21;4.53;;;1.73;;
13941;SDS011;7043;51.630;7.254;2023-04-03T14:58:49;3.93;;;1.40;;
13941;SDS011;7043;51.630;7.254;2023-04-03T15:01:16;2.83;;;1.30;;
13941;SDS011;7043;51.630;7.254;2023-04-03T15:03:42;2.53;;;1.23;;
13941;SDS011;7043;51.630;7.254;2023-04-03T15:06:11;5.10;;;1.63;;
13941;SDS011;7043;51.630;7.254;2023-04-03T15:08:38;4.60;;;1.70;;
13941;SDS011;7043;51.630;7.254;2023-04-03T15:11:05;4.43;;;1.40;;
13941;SDS011;7043;51.630;7.254;2023-04-03T15:13:32;2.63;;;1.53;;
13941;SDS011;7043;51.630;7.254;2023-04-03T15:15:59;4.30;;;1.60;;
13941;SDS011;7043;51.630;7.254;2023-04-03T15:18:26;3.27;;;1.63;;
13941;SDS011;7043;51.630;7.254;2023-04-03T15:20:53;4.37;;;1.60;;
13941;SDS011;7043;51.630;7.254;2023-04-03T15:23:20;2.50;;;1.50;;
13941;SDS011;7043;51.630;7.254;2023-04-03T15:25:50;3.33;;;2.63;;
13941;SDS011;7043;51.630;7.254;2023-04-03T15:28:22;3.37;;;1.67;;
13941;SDS011;7043;51.630;7.254;2023-04-03T15:30:48;3.77;;;1.50;;
13941;SDS011;7043;51.630;7.254;2023-04-03T15:33:16;3.50;;;1.67;;
13941;SDS011;7043;51.630;7.254;2023-04-03T15:35:42;4.77;;;1.70;;
13941;SDS011;7043;51.630;7.254;2023-04-03T15:38:08;2.80;;;1.50;;
13941;SDS011;7043;51.630;7.254;2023-04-03T15:40:34;2.83;;;1.50;;
13941;SDS011;7043;51.630;7.254;2023-04-03T15:43:00;2.43;;;1.50;;
13941;SDS011;7043;51.630;7.254;2023-04-03T15:45:28;3.57;;;1.47;;
13941;SDS011;7043;51.630;7.254;2023-04-03T15:47:55;5.20;;;1.60;;
13941;SDS011;7043;51.630;7.254;2023-04-03T15:50:21;3.03;;;1.40;;
13941;SDS011;7043;51.630;7.254;2023-04-03T15:52:49;3.33;;;1.33;;
13941;SDS011;7043;51.630;7.254;2023-04-03T15:55:19;4.73;;;1.70;;
13941;SDS011;7043;51.630;7.254;2023-04-03T15:57:45;2.97;;;1.30;;
13941;SDS011;7043;51.630;7.254;2023-04-03T16:00:11;2.20;;;1.53;;
13941;SDS011;7043;51.630;7.254;2023-04-03T16:02:37;2.37;;;1.40;;
13941;SDS011;7043;51.630;7.254;2023-04-03T16:05:03;2.80;;;2.23;;
13941;SDS011;7043;51.630;7.254;2023-04-03T16:07:30;3.03;;;1.70;;
13941;SDS011;7043;51.630;7.254;2023-04-03T16:09:56;2.57;;;1.13;;
13941;SDS011;7043;51.630;7.254;2023-04-03T16:12:22;4.20;;;1.73;;
13941;SDS011;7043;51.630;7.254;2023-04-03T16:14:48;3.67;;;1.63;;
13941;SDS011;7043;51.630;7.254;2023-04-03T16:17:14;3.37;;;1.37;;
13941;SDS011;7043;51.630;7.254;2023-04-03T16:19:40;3.40;;;1.47;;
13941;SDS011;7043;51.630;7.254;2023-04-03T16:22:06;1.93;;;1.30;;
13941;SDS011;7043;51.630;7.254;2023-04-03T16:24:32;2.07;;;1.33;;
13941;SDS011;7043;51.630;7.254;2023-04-03T16:27:00;3.33;;;1.50;;
13941;SDS011;7043;51.630;7.254;2023-04-03T16:29:26;2.47;;;1.20;;
13941;SDS011;7043;51.630;7.254;2023-04-03T16:31:52;1.60;;;1.30;;
13941;SDS011;7043;51.630;7.254;2023-04-03T16:34:18;2.83;;;1.37;;
13941;SDS011;7043;51.630;7.254;2023-04-03T16:36:44;1.63;;;1.30;;
13941;SDS011;7043;51.630;7.254;2023-04-03T16:39:10;3.37;;;1.70;;